createdAt,value
2023-03-24T00:01:54.703Z,42.60
2023-03-24T00:03:56.596Z,42.50
2023-03-24T00:06:02.427Z,42.60
2023-03-24T00:08:04.751Z,42.50
2023-03-24T00:10:07.821Z,42.60
2023-03-24T00:12:11.003Z,42.50
2023-03-24T00:14:12.759Z,42.60
2023-03-24T00:16:15.215Z,42.60
2023-03-24T00:18:17.197Z,42.50
2023-03-24T00:20:20.384Z,42.50
2023-03-24T00:22:22.374Z,42.50
2023-03-24T00:24:24.172Z,42.50
2023-03-24T00:26:26.205Z,42.50
2023-03-24T00:28:29.570Z,42.50
2023-03-24T00:30:31.314Z,42.60
2023-03-24T00:32:33.336Z,42.50
2023-03-24T00:34:35.222Z,42.50
2023-03-24T00:36:37.263Z,42.50
2023-03-24T00:38:39.725Z,42.60
2023-03-24T00:40:45.360Z,42.50
2023-03-24T00:42:48.108Z,42.50
2023-03-24T00:44:50.005Z,42.60
2023-03-24T00:46:52.329Z,42.60
2023-03-24T00:48:58.164Z,42.60
2023-03-24T00:51:02.123Z,42.60
2023-03-24T00:53:03.922Z,42.50
2023-03-24T00:55:06.275Z,42.60
2023-03-24T00:57:08.808Z,42.60
2023-03-24T00:59:11.024Z,42.60
2023-03-24T01:01:13.032Z,42.50
2023-03-24T01:03:15.684Z,42.50
2023-03-24T01:05:17.996Z,42.60
2023-03-24T01:07:20.605Z,43.20
2023-03-24T01:09:22.429Z,42.60
2023-03-24T01:11:25.239Z,42.60
2023-03-24T01:13:28.602Z,42.70
2023-03-24T01:15:32.100Z,42.60
2023-03-24T01:17:33.906Z,42.70
2023-03-24T01:19:35.785Z,42.70
2023-03-24T01:21:38.238Z,42.60
2023-03-24T01:23:40.505Z,42.70
2023-03-24T01:25:42.297Z,42.60
2023-03-24T01:27:47.914Z,42.50
2023-03-24T01:29:49.862Z,42.70
2023-03-24T01:31:52.006Z,42.60
2023-03-24T01:33:53.893Z,42.60
2023-03-24T01:35:55.780Z,42.60
2023-03-24T01:37:58.261Z,42.70
2023-03-24T01:40:00.101Z,42.60
2023-03-24T01:42:01.921Z,42.60
2023-03-24T01:44:22.322Z,42.60
2023-03-24T01:46:24.178Z,42.60
2023-03-24T01:48:35.154Z,42.70
2023-03-24T01:50:37.302Z,42.60
2023-03-24T01:52:41.021Z,42.60
2023-03-24T01:54:46.056Z,42.60
2023-03-24T01:56:51.127Z,42.70
2023-03-24T01:59:00.862Z,42.60
2023-03-24T02:01:11.865Z,42.70
2023-03-24T02:03:46.097Z,42.70
2023-03-24T02:05:50.178Z,42.70
2023-03-24T02:07:54.878Z,42.70
2023-03-24T02:09:57.046Z,42.70
2023-03-24T02:11:58.971Z,42.70
2023-03-24T02:14:04.434Z,42.80
2023-03-24T02:16:09.724Z,42.80
2023-03-24T02:18:49.076Z,42.80
2023-03-24T02:21:00.314Z,43.50
2023-03-24T02:23:17.905Z,42.90
2023-03-24T02:25:25.954Z,42.90
2023-03-24T02:27:57.161Z,42.90
2023-03-24T02:30:22.098Z,42.90
2023-03-24T02:32:34.429Z,42.80
2023-03-24T02:34:54.789Z,42.80
2023-03-24T02:36:59.359Z,42.70
2023-03-24T02:39:20.225Z,42.70
2023-03-24T02:41:24.803Z,42.70
2023-03-24T02:43:35.792Z,42.70
2023-03-24T02:45:41.143Z,42.60
2023-03-24T02:47:48.918Z,42.60
2023-03-24T02:49:53.618Z,42.60
2023-03-24T02:52:01.675Z,42.60
2023-03-24T02:54:09.521Z,42.60
2023-03-24T02:56:13.166Z,42.70
2023-03-24T02:58:21.329Z,42.60
2023-03-24T03:00:31.500Z,42.60
2023-03-24T03:02:45.946Z,42.60
2023-03-24T03:04:49.674Z,42.70
2023-03-24T03:06:55.181Z,42.60
2023-03-24T03:08:58.149Z,42.60
2023-03-24T03:11:00.884Z,42.60
2023-03-24T03:13:07.380Z,42.70
2023-03-24T03:15:16.482Z,42.60
2023-03-24T03:17:20.679Z,42.60
2023-03-24T03:19:24.476Z,42.60
2023-03-24T03:21:29.003Z,42.60
2023-03-24T03:23:34.603Z,42.60
2023-03-24T03:25:39.722Z,42.70
2023-03-24T03:27:43.008Z,42.60
2023-03-24T03:29:46.781Z,42.60
2023-03-24T03:31:53.281Z,42.70
2023-03-24T03:34:11.076Z,42.60
2023-03-24T03:36:39.007Z,42.60
2023-03-24T03:38:45.883Z,42.70
2023-03-24T03:40:52.292Z,42.60
2023-03-24T03:42:57.390Z,42.60
2023-03-24T03:44:59.280Z,42.60
2023-03-24T03:47:01.171Z,42.70
2023-03-24T03:49:13.197Z,42.60
2023-03-24T03:51:15.603Z,42.60
2023-03-24T03:53:33.788Z,42.60
2023-03-24T03:55:36.068Z,42.60
2023-03-24T03:57:39.172Z,42.60
2023-03-24T03:59:47.431Z,42.50
2023-03-24T04:01:50.740Z,42.60
2023-03-24T04:04:07.797Z,42.60
2023-03-24T04:06:44.444Z,42.60
2023-03-24T04:08:50.938Z,42.60
2023-03-24T04:11:31.151Z,42.60
2023-03-24T04:14:11.767Z,42.60
2023-03-24T04:16:33.548Z,42.70
2023-03-24T04:18:48.924Z,42.80
2023-03-24T04:21:10.818Z,42.90
2023-03-24T04:23:30.039Z,42.70
2023-03-24T04:25:41.517Z,42.70
2023-03-24T04:27:46.680Z,42.60
2023-03-24T04:29:55.343Z,42.60
2023-03-24T04:32:09.932Z,42.60
2023-03-24T04:34:27.177Z,42.70
2023-03-24T04:36:47.685Z,42.80
2023-03-24T04:39:16.573Z,42.70
2023-03-24T04:41:26.814Z,42.70
2023-03-24T04:43:39.946Z,42.80
2023-03-24T04:45:44.960Z,42.70
2023-03-24T04:48:08.152Z,42.70
2023-03-24T04:50:33.215Z,42.70
2023-03-24T04:52:41.547Z,42.80
2023-03-24T04:54:44.540Z,43.30
2023-03-24T04:56:51.172Z,42.80
2023-03-24T04:59:04.219Z,42.70
2023-03-24T05:01:06.775Z,42.60
2023-03-24T05:03:08.699Z,42.80
2023-03-24T05:05:11.105Z,42.80
2023-03-24T05:07:20.316Z,42.70
2023-03-24T05:09:26.744Z,42.70
2023-03-24T05:11:28.666Z,42.70
2023-03-24T05:13:38.181Z,42.90
2023-03-24T05:15:40.049Z,42.90
2023-03-24T05:18:02.454Z,42.90
2023-03-24T05:20:04.583Z,42.90
2023-03-24T05:22:06.403Z,42.70
2023-03-24T05:24:08.326Z,42.80
2023-03-24T05:26:11.311Z,42.70
2023-03-24T05:28:29.941Z,42.80
2023-03-24T05:30:32.934Z,42.80
2023-03-24T05:32:46.735Z,42.70
2023-03-24T05:34:49.078Z,42.80
2023-03-24T05:36:52.151Z,42.80
2023-03-24T05:38:56.303Z,42.80
2023-03-24T05:41:02.316Z,42.80
2023-03-24T05:43:11.032Z,42.80
2023-03-24T05:45:16.057Z,42.70
2023-03-24T05:47:18.021Z,42.80
2023-03-24T05:49:20.097Z,42.90
2023-03-24T05:51:21.967Z,42.80
2023-03-24T05:53:33.895Z,42.80
2023-03-24T05:55:47.755Z,42.90
2023-03-24T05:58:09.516Z,42.90
2023-03-24T06:00:21.784Z,42.80
2023-03-24T06:02:29.899Z,42.80
2023-03-24T06:04:37.853Z,42.90
2023-03-24T06:06:46.870Z,42.80
2023-03-24T06:08:52.501Z,42.70
2023-03-24T06:10:58.565Z,43.00
2023-03-24T06:13:00.648Z,42.90
2023-03-24T06:15:03.869Z,42.80
2023-03-24T06:17:10.044Z,43.00
2023-03-24T06:19:11.886Z,42.80
2023-03-24T06:21:30.443Z,42.90
2023-03-24T06:23:33.609Z,42.80
2023-03-24T06:25:57.959Z,42.90
2023-03-24T06:28:00.312Z,42.80
2023-03-24T06:30:02.320Z,43.00
2023-03-24T06:32:04.866Z,42.90
2023-03-24T06:34:12.190Z,42.90
2023-03-24T06:36:15.366Z,42.80
2023-03-24T06:38:18.310Z,42.90
2023-03-24T06:40:20.526Z,43.50
2023-03-24T06:42:30.251Z,42.80
2023-03-24T06:44:32.520Z,43.00
2023-03-24T06:46:34.580Z,42.90
2023-03-24T06:48:36.581Z,42.90
2023-03-24T06:50:42.201Z,42.90
2023-03-24T06:52:45.786Z,42.90
2023-03-24T06:54:49.841Z,42.90
2023-03-24T06:56:51.718Z,43.00
2023-03-24T06:58:55.843Z,42.90
2023-03-24T07:01:07.442Z,43.70
2023-03-24T07:03:29.654Z,43.00
2023-03-24T07:05:49.921Z,43.00
2023-03-24T07:10:13.535Z,43.00
2023-03-24T07:12:15.424Z,43.20
2023-03-24T07:14:17.748Z,43.20
2023-03-24T07:16:20.502Z,43.10
2023-03-24T07:18:27.640Z,43.10
2023-03-24T07:20:34.321Z,43.00
2023-03-24T07:22:57.384Z,43.00
2023-03-24T07:24:59.190Z,43.00
2023-03-24T07:27:13.369Z,43.10
2023-03-24T07:29:15.141Z,43.00
2023-03-24T07:31:41.646Z,43.00
2023-03-24T07:33:46.473Z,43.00
2023-03-24T07:35:49.091Z,43.00
2023-03-24T07:37:52.194Z,43.00
2023-03-24T07:39:53.988Z,43.00
2023-03-24T07:41:55.865Z,43.00
2023-03-24T07:44:14.213Z,43.00
2023-03-24T07:46:23.598Z,43.00
2023-03-24T07:48:25.503Z,43.00
2023-03-24T07:50:28.351Z,43.00
2023-03-24T07:52:30.557Z,43.00
2023-03-24T07:54:33.026Z,43.10
2023-03-24T07:56:34.960Z,43.10
2023-03-24T07:58:37.069Z,43.10
2023-03-24T08:00:54.204Z,43.10
2023-03-24T08:03:03.145Z,43.10
2023-03-24T08:05:37.470Z,43.10
2023-03-24T08:07:54.961Z,43.10
2023-03-24T08:09:56.784Z,43.10
2023-03-24T08:12:00.566Z,43.80
2023-03-24T08:14:08.884Z,43.60
2023-03-24T08:16:10.784Z,43.80
2023-03-24T08:18:12.680Z,43.70
2023-03-24T08:20:14.838Z,44.00
2023-03-24T08:22:16.897Z,44.70
2023-03-24T08:24:18.686Z,45.70
2023-03-24T08:26:20.508Z,45.40
2023-03-24T08:28:22.348Z,46.50
2023-03-24T08:30:25.122Z,46.50
2023-03-24T08:32:27.013Z,47.30
2023-03-24T08:34:28.826Z,47.50
2023-03-24T08:36:30.742Z,46.60
2023-03-24T08:38:32.607Z,47.80
2023-03-24T08:40:35.352Z,48.50
2023-03-24T08:42:37.194Z,48.00
2023-03-24T08:44:38.997Z,48.80
2023-03-24T08:46:40.833Z,49.00
2023-03-24T08:48:42.688Z,49.40
2023-03-24T08:50:44.574Z,50.40
2023-03-24T08:52:46.454Z,50.20
2023-03-24T08:54:48.289Z,50.00
2023-03-24T08:56:50.370Z,48.30
2023-03-24T08:58:52.248Z,50.30
2023-03-24T09:00:54.055Z,50.00
2023-03-24T09:02:56.411Z,50.30
2023-03-24T09:04:58.949Z,48.40
2023-03-24T09:07:02.959Z,50.00
2023-03-24T09:09:05.005Z,50.10
2023-03-24T09:11:07.135Z,50.50
2023-03-24T09:13:09.275Z,50.20
2023-03-24T09:15:13.241Z,50.50
2023-03-24T09:17:15.369Z,52.90
2023-03-24T09:19:17.329Z,50.40
2023-03-24T09:21:19.133Z,52.60
2023-03-24T09:25:24.361Z,51.50
2023-03-24T09:29:28.763Z,50.10
2023-03-24T09:31:30.698Z,50.80
2023-03-24T09:33:32.680Z,51.20
2023-03-24T09:35:34.528Z,51.80
2023-03-24T09:37:37.023Z,51.40
2023-03-24T09:39:38.993Z,51.20
2023-03-24T09:41:43.009Z,50.80
2023-03-24T09:43:46.664Z,52.50
2023-03-24T09:45:50.466Z,52.30
2023-03-24T09:47:52.394Z,52.70
2023-03-24T09:49:55.546Z,51.90
2023-03-24T09:52:03.380Z,51.40
2023-03-24T09:54:08.244Z,51.30
2023-03-24T09:56:17.300Z,51.90
2023-03-24T09:58:19.986Z,51.60
2023-03-24T10:00:28.883Z,51.80
2023-03-24T10:02:30.810Z,52.30
2023-03-24T10:04:32.706Z,52.70
2023-03-24T10:06:38.652Z,52.50
2023-03-24T10:08:43.071Z,52.60
2023-03-24T10:11:08.025Z,52.00
2023-03-24T10:13:18.614Z,51.70
2023-03-24T10:15:37.310Z,51.60
2023-03-24T10:17:55.544Z,52.10
2023-03-24T10:20:00.613Z,52.20
2023-03-24T10:22:18.177Z,51.60
2023-03-24T10:24:29.877Z,50.60
2023-03-24T10:26:37.986Z,52.30
2023-03-24T10:28:55.452Z,51.50
2023-03-24T10:30:59.972Z,51.20
2023-03-24T10:33:02.369Z,51.50
2023-03-24T10:35:05.913Z,51.20
2023-03-24T10:37:09.098Z,51.10
2023-03-24T10:39:19.996Z,50.70
2023-03-24T10:41:27.944Z,51.30
2023-03-24T10:43:29.800Z,50.80
2023-03-24T10:45:35.584Z,50.30
2023-03-24T10:47:38.262Z,51.70
2023-03-24T10:49:52.029Z,51.00
2023-03-24T10:51:54.281Z,51.40
2023-03-24T10:54:11.404Z,51.80
2023-03-24T10:56:17.617Z,51.10
2023-03-24T10:58:19.392Z,51.10
2023-03-24T11:00:31.112Z,51.10
2023-03-24T11:02:33.521Z,50.70
2023-03-24T11:04:36.842Z,51.70
2023-03-24T11:06:38.710Z,52.50
2023-03-24T11:08:40.609Z,51.80
2023-03-24T11:10:42.456Z,52.00
2023-03-24T11:13:04.446Z,52.10
2023-03-24T11:15:19.729Z,51.80
2023-03-24T11:17:24.080Z,52.20
2023-03-24T11:19:25.903Z,51.90
2023-03-24T11:21:32.496Z,52.90
2023-03-24T11:23:41.227Z,52.10
2023-03-24T11:25:44.885Z,52.20
2023-03-24T11:27:48.344Z,52.40
2023-03-24T11:29:54.255Z,52.90
2023-03-24T11:31:57.412Z,52.30
2023-03-24T11:34:01.987Z,52.30
2023-03-24T11:36:07.907Z,52.20
2023-03-24T11:38:15.757Z,51.90
2023-03-24T11:40:26.436Z,51.90
2023-03-24T11:42:28.277Z,52.30
2023-03-24T11:44:31.502Z,51.70
2023-03-24T11:46:33.408Z,51.50
2023-03-24T11:48:41.999Z,51.60
2023-03-24T11:50:44.454Z,51.40
2023-03-24T11:52:52.088Z,51.40
2023-03-24T11:54:53.923Z,51.40
2023-03-24T11:56:57.359Z,51.10
2023-03-24T11:58:59.167Z,50.90
2023-03-24T12:01:04.526Z,51.20
2023-03-24T12:03:15.746Z,50.50
2023-03-24T12:05:36.352Z,51.10
2023-03-24T12:07:47.329Z,51.20
2023-03-24T12:09:49.106Z,51.10
2023-03-24T12:11:53.941Z,51.90
2023-03-24T12:13:57.395Z,51.80
2023-03-24T12:15:59.197Z,51.80
2023-03-24T12:18:01.004Z,51.80
2023-03-24T12:20:14.536Z,51.50
2023-03-24T12:22:28.213Z,51.60
2023-03-24T12:24:48.903Z,52.10
2023-03-24T12:26:53.298Z,52.00
2023-03-24T12:28:57.809Z,52.10
2023-03-24T12:31:18.052Z,52.10
2023-03-24T12:33:40.190Z,52.00
2023-03-24T12:35:47.857Z,51.80
2023-03-24T12:37:59.781Z,51.60
2023-03-24T12:40:01.681Z,52.00
2023-03-24T12:42:16.292Z,52.70
2023-03-24T12:44:18.098Z,52.50
2023-03-24T12:46:46.685Z,51.80
2023-03-24T12:48:52.405Z,52.40
2023-03-24T12:51:13.037Z,52.40
2023-03-24T12:53:30.237Z,52.10
2023-03-24T12:55:35.314Z,52.30
2023-03-24T12:57:48.906Z,52.00
2023-03-24T12:59:54.225Z,52.30
2023-03-24T13:02:02.357Z,51.70
2023-03-24T13:04:13.214Z,52.90
2023-03-24T13:06:22.903Z,52.80
2023-03-24T13:08:25.683Z,53.80
2023-03-24T13:12:37.232Z,52.30
2023-03-24T13:16:42.518Z,52.20
2023-03-24T13:18:55.225Z,53.10
2023-03-24T13:20:57.035Z,52.70
2023-03-24T13:23:02.569Z,52.30
2023-03-24T13:25:08.986Z,52.50
2023-03-24T13:27:14.994Z,52.60
2023-03-24T13:29:45.632Z,52.10
2023-03-24T13:31:54.112Z,52.90
2023-03-24T13:33:56.875Z,52.70
2023-03-24T13:36:04.708Z,53.70
2023-03-24T13:40:10.878Z,52.80
2023-03-24T13:42:29.404Z,50.80
2023-03-24T13:44:31.221Z,52.50
2023-03-24T13:46:35.919Z,52.70
2023-03-24T13:48:46.502Z,52.80
2023-03-24T13:50:56.791Z,53.20
2023-03-24T13:53:01.280Z,52.50
2023-03-24T13:55:09.573Z,53.00
2023-03-24T13:57:17.443Z,52.20
2023-03-24T13:59:45.657Z,52.10
2023-03-24T14:02:07.452Z,53.20
2023-03-24T14:04:15.065Z,52.20
2023-03-24T14:06:17.443Z,52.10
2023-03-24T14:08:19.196Z,52.30
2023-03-24T14:10:21.035Z,52.80
2023-03-24T14:12:22.888Z,53.20
2023-03-24T14:14:27.754Z,53.30
2023-03-24T14:16:41.848Z,53.20
2023-03-24T14:18:43.660Z,52.90
2023-03-24T14:20:57.852Z,52.90
2023-03-24T14:23:00.456Z,52.70
2023-03-24T14:25:03.933Z,52.60
2023-03-24T14:27:24.495Z,52.70
2023-03-24T14:29:32.440Z,52.80
2023-03-24T14:31:34.886Z,52.50
2023-03-24T14:33:37.681Z,52.40
2023-03-24T14:35:40.479Z,52.50
2023-03-24T14:37:48.805Z,52.80
2023-03-24T14:39:51.134Z,52.80
2023-03-24T14:41:53.229Z,52.70
2023-03-24T14:43:56.706Z,53.00
2023-03-24T14:46:00.029Z,53.10
2023-03-24T14:48:03.286Z,53.10
2023-03-24T14:50:31.378Z,53.40
2023-03-24T14:52:40.620Z,52.80
2023-03-24T14:56:46.644Z,52.80
2023-03-24T14:58:50.579Z,53.40
2023-03-24T15:03:24.672Z,53.30
2023-03-24T15:05:29.424Z,53.10
2023-03-24T15:07:31.184Z,52.70
2023-03-24T15:09:36.365Z,53.80
2023-03-24T15:11:39.455Z,53.30
2023-03-24T15:13:42.455Z,54.00
2023-03-24T15:15:46.862Z,53.70
2023-03-24T15:17:49.386Z,53.70
2023-03-24T15:19:52.758Z,53.30
2023-03-24T15:22:10.172Z,53.40
2023-03-24T15:24:21.023Z,53.60
2023-03-24T15:26:23.646Z,53.50
2023-03-24T15:28:26.997Z,53.60
2023-03-24T15:30:28.869Z,53.50
2023-03-24T15:32:30.725Z,53.20
2023-03-24T15:34:42.423Z,53.50
2023-03-24T15:36:44.164Z,53.50
2023-03-24T15:38:47.306Z,53.60
2023-03-24T15:40:53.744Z,53.30
2023-03-24T15:42:56.524Z,53.30
2023-03-24T15:45:08.216Z,53.20
2023-03-24T15:47:24.095Z,53.40
2023-03-24T15:49:27.200Z,53.40
2023-03-24T15:51:49.263Z,53.90
2023-03-24T15:53:57.696Z,54.00
2023-03-24T15:56:22.541Z,54.60
2023-03-24T15:58:28.976Z,53.60
2023-03-24T16:04:35.209Z,53.30
2023-03-24T16:06:37.094Z,53.90
2023-03-24T16:08:39.208Z,53.90
2023-03-24T16:12:43.276Z,52.90
2023-03-24T16:14:45.118Z,53.80
2023-03-24T16:16:47.034Z,53.40
2023-03-24T16:18:49.326Z,52.80
2023-03-24T16:20:51.390Z,53.00
2023-03-24T16:22:53.400Z,52.60
2023-03-24T16:24:55.156Z,52.50
2023-03-24T16:26:56.999Z,52.90
2023-03-24T16:29:25.236Z,52.90
2023-03-24T16:31:28.490Z,52.60
2023-03-24T16:33:30.449Z,52.60
2023-03-24T16:35:32.240Z,52.90
2023-03-24T16:37:34.057Z,52.70
2023-03-24T16:39:35.900Z,53.10
2023-03-24T16:41:37.737Z,53.80
2023-03-24T16:43:43.089Z,53.40
2023-03-24T16:45:45.454Z,53.10
2023-03-24T16:47:47.406Z,52.80
2023-03-24T16:49:49.193Z,52.80
2023-03-24T16:51:51.298Z,52.60
2023-03-24T16:53:53.184Z,52.80
2023-03-24T16:55:54.972Z,53.40
2023-03-24T16:57:56.955Z,53.70
2023-03-24T16:59:58.755Z,53.30
2023-03-24T17:02:02.281Z,53.60
2023-03-24T17:04:05.444Z,53.20
2023-03-24T17:06:07.815Z,53.00
2023-03-24T17:08:12.430Z,52.40
2023-03-24T17:10:14.463Z,52.00
2023-03-24T17:12:16.321Z,51.00
2023-03-24T17:14:18.116Z,50.90
2023-03-24T17:16:20.261Z,51.40
2023-03-24T17:18:22.071Z,50.60
2023-03-24T17:20:24.284Z,50.60
2023-03-24T17:22:26.142Z,51.00
2023-03-24T17:24:28.619Z,50.90
2023-03-24T17:26:31.570Z,50.90
2023-03-24T17:28:34.084Z,51.20
2023-03-24T17:30:35.888Z,50.90
2023-03-24T17:32:37.742Z,50.80
2023-03-24T17:34:41.825Z,51.20
2023-03-24T17:36:43.736Z,51.20
2023-03-24T17:38:45.588Z,50.90
2023-03-24T17:40:47.526Z,50.70
2023-03-24T17:42:49.503Z,50.70
2023-03-24T17:44:51.354Z,51.10
2023-03-24T17:46:53.402Z,51.20
2023-03-24T17:48:55.368Z,51.30
2023-03-24T17:50:57.254Z,51.40
2023-03-24T17:52:59.212Z,51.20
2023-03-24T17:55:01.095Z,51.20
2023-03-24T17:57:02.925Z,51.20
2023-03-24T17:59:04.830Z,51.20
2023-03-24T18:01:08.143Z,50.80
2023-03-24T18:03:10.476Z,51.50
2023-03-24T18:05:12.707Z,51.40
2023-03-24T18:07:14.501Z,51.40
2023-03-24T18:09:16.322Z,51.20
2023-03-24T18:11:18.145Z,51.30
2023-03-24T18:13:19.904Z,51.30
2023-03-24T18:15:21.774Z,51.50
2023-03-24T18:17:23.619Z,51.20
2023-03-24T18:19:25.480Z,51.60
2023-03-24T18:21:27.537Z,51.60
2023-03-24T18:23:29.331Z,51.60
2023-03-24T18:25:31.901Z,51.60
2023-03-24T18:27:33.726Z,51.50
2023-03-24T18:29:36.340Z,51.70
2023-03-24T18:31:38.203Z,51.60
2023-03-24T18:33:40.094Z,51.80
2023-03-24T18:35:41.983Z,51.50
2023-03-24T18:37:44.296Z,51.50
2023-03-24T18:39:46.106Z,51.80
2023-03-24T18:41:48.093Z,51.50
2023-03-24T18:43:50.169Z,51.80
2023-03-24T18:45:52.596Z,51.90
2023-03-24T18:47:54.753Z,51.80
2023-03-24T18:49:56.557Z,51.90
2023-03-24T18:51:58.423Z,52.30
2023-03-24T18:54:00.268Z,52.20
2023-03-24T18:56:04.078Z,52.10
2023-03-24T18:58:05.897Z,52.10
2023-03-24T19:00:08.143Z,52.20
2023-03-24T19:02:11.234Z,52.10
2023-03-24T19:04:13.165Z,51.90
2023-03-24T19:06:15.672Z,52.20
2023-03-24T19:08:17.500Z,52.10
2023-03-24T19:10:19.639Z,52.10
2023-03-24T19:12:21.466Z,52.20
2023-03-24T19:14:23.291Z,52.10
2023-03-24T19:16:25.104Z,52.10
2023-03-24T19:18:26.866Z,51.90
2023-03-24T19:20:28.710Z,52.60
2023-03-24T19:22:30.753Z,52.60
2023-03-24T19:24:32.605Z,52.60
2023-03-24T19:26:34.372Z,52.50
2023-03-24T19:28:37.574Z,52.40
2023-03-24T19:30:39.570Z,52.40
2023-03-24T19:32:41.349Z,52.20
2023-03-24T19:34:43.243Z,52.30
2023-03-24T19:36:46.501Z,52.30
2023-03-24T19:38:50.248Z,52.40
2023-03-24T19:40:52.413Z,52.40
2023-03-24T19:42:54.244Z,52.60
2023-03-24T19:44:56.198Z,52.30
2023-03-24T19:46:57.998Z,52.20
2023-03-24T19:48:59.793Z,52.30
2023-03-24T19:51:01.628Z,52.40
2023-03-24T19:53:03.523Z,52.10
2023-03-24T19:55:07.219Z,52.30
2023-03-24T19:57:09.112Z,52.20
2023-03-24T19:59:10.999Z,51.70
2023-03-24T20:01:12.886Z,51.70
2023-03-24T20:03:14.776Z,51.90
2023-03-24T20:05:16.735Z,51.60
2023-03-24T20:07:18.564Z,51.50
2023-03-24T20:09:20.368Z,51.50
2023-03-24T20:11:22.162Z,51.60
2023-03-24T20:13:24.144Z,51.20
2023-03-24T20:15:25.952Z,51.40
2023-03-24T20:17:28.145Z,51.00
2023-03-24T20:19:30.139Z,51.50
2023-03-24T20:21:31.967Z,51.70
2023-03-24T20:23:33.763Z,51.60
2023-03-24T20:25:35.564Z,51.50
2023-03-24T20:27:37.767Z,51.60
2023-03-24T20:29:39.974Z,51.60
2023-03-24T20:31:41.895Z,51.30
2023-03-24T20:33:43.750Z,51.50
2023-03-24T20:35:45.612Z,51.60
2023-03-24T20:37:47.469Z,51.70
2023-03-24T20:39:49.278Z,51.70
2023-03-24T20:41:51.098Z,51.60
2023-03-24T20:43:52.968Z,51.70
2023-03-24T20:45:57.592Z,51.60
2023-03-24T20:47:59.607Z,51.70
2023-03-24T20:50:01.494Z,51.50
2023-03-24T20:52:03.365Z,51.10
2023-03-24T20:54:05.124Z,51.50
2023-03-24T20:56:08.242Z,51.50
2023-03-24T20:58:10.062Z,51.50
2023-03-24T21:00:12.231Z,51.60
2023-03-24T21:02:14.074Z,51.50
2023-03-24T21:04:16.592Z,51.40
2023-03-24T21:06:19.116Z,51.40
2023-03-24T21:08:20.900Z,51.50
2023-03-24T21:10:22.989Z,51.50
2023-03-24T21:12:24.864Z,51.50
2023-03-24T21:14:26.755Z,51.30
2023-03-24T21:16:28.962Z,51.40
2023-03-24T21:18:30.800Z,51.40
2023-03-24T21:20:32.539Z,51.40
2023-03-24T21:22:34.390Z,51.40
2023-03-24T21:24:36.202Z,51.40
2023-03-24T21:26:37.991Z,51.30
2023-03-24T21:28:39.970Z,51.30
2023-03-24T21:30:41.850Z,51.30
2023-03-24T21:32:43.741Z,51.40
2023-03-24T21:34:45.566Z,51.30
2023-03-24T21:36:47.432Z,51.30
2023-03-24T21:38:49.656Z,51.30
2023-03-24T21:40:58.447Z,51.30
2023-03-24T21:43:00.281Z,51.20
2023-03-24T21:45:02.845Z,51.30
2023-03-24T21:47:04.687Z,51.20
2023-03-24T21:49:06.562Z,51.30
2023-03-24T21:51:08.456Z,51.10
2023-03-24T21:53:10.254Z,51.10
2023-03-24T21:55:12.101Z,51.10
2023-03-24T21:57:13.866Z,51.00
2023-03-24T21:59:15.732Z,51.10
2023-03-24T22:01:17.545Z,51.10
2023-03-24T22:03:19.429Z,51.00
2023-03-24T22:05:22.751Z,50.90
2023-03-24T22:07:24.601Z,51.00
2023-03-24T22:09:26.525Z,51.00
2023-03-24T22:11:28.321Z,51.00
2023-03-24T22:13:30.930Z,50.90
2023-03-24T22:15:33.762Z,50.80
2023-03-24T22:17:36.843Z,50.80
2023-03-24T22:19:38.744Z,50.80
2023-03-24T22:21:40.487Z,50.70
2023-03-24T22:23:42.570Z,50.70
2023-03-24T22:25:44.681Z,50.60
2023-03-24T22:27:46.545Z,50.60
2023-03-24T22:29:48.386Z,50.60
2023-03-24T22:31:50.194Z,50.60
2023-03-24T22:33:52.131Z,50.60
2023-03-24T22:35:54.962Z,50.60
2023-03-24T22:37:56.776Z,50.50
2023-03-24T22:39:58.624Z,50.50
2023-03-24T22:42:00.492Z,50.50
2023-03-24T22:44:02.863Z,50.40
2023-03-24T22:46:04.848Z,50.30
2023-03-24T22:48:06.701Z,50.20
2023-03-24T22:50:08.705Z,50.20
2023-03-24T22:52:10.525Z,50.20
2023-03-24T22:54:12.392Z,50.00
2023-03-24T22:56:15.160Z,50.00
2023-03-24T22:58:17.164Z,50.00
2023-03-24T23:00:19.144Z,50.00
2023-03-24T23:02:21.028Z,50.10
2023-03-24T23:04:22.814Z,50.00
2023-03-24T23:06:24.605Z,50.00
2023-03-24T23:08:26.429Z,50.10
2023-03-24T23:10:28.252Z,50.00
2023-03-24T23:12:30.066Z,50.00
2023-03-24T23:14:31.909Z,50.10
2023-03-24T23:16:34.869Z,49.90
2023-03-24T23:18:37.243Z,49.90
2023-03-24T23:20:39.184Z,49.90
2023-03-24T23:22:41.240Z,49.90
2023-03-24T23:24:43.109Z,49.80
2023-03-24T23:26:44.927Z,49.90
2023-03-24T23:28:47.412Z,49.90
2023-03-24T23:30:49.293Z,49.80
2023-03-24T23:32:51.151Z,49.80
2023-03-24T23:34:53.117Z,49.90
2023-03-24T23:36:54.910Z,49.80
2023-03-24T23:38:56.794Z,49.80
2023-03-24T23:40:58.607Z,49.80
2023-03-24T23:43:01.728Z,49.80
2023-03-24T23:45:04.463Z,49.70
2023-03-24T23:47:06.265Z,49.70
2023-03-24T23:49:08.628Z,49.70
2023-03-24T23:51:10.420Z,49.60
2023-03-24T23:53:12.229Z,49.70
2023-03-24T23:55:15.253Z,49.60
2023-03-24T23:57:17.106Z,49.60
2023-03-24T23:59:18.931Z,49.60
